Time;durP1;ratioP1;P1;durP2;ratioP2;P2;SDS_P1;SDS_P2;PMS_P1;PMS_P2;Temp;Humidity;BMP_temperature;BMP_pressure;BME280_temperature;BME280_humidity;BME280_pressure;Samples;Min_cycle;Max_cycle;Signal;HPM_P1;HPM_P2
2021/12/17 00:04:55;;;;;;;7.88;3.50;;;;;;;21.12;25.08;99441.16;5030552;28;20037;-82
2021/12/17 00:07:23;;;;;;;8.75;4.03;;;;;;;21.10;25.06;99434.34;5030200;28;20037;-83
2021/12/17 00:09:52;;;;;;;6.57;2.83;;;;;;;21.27;24.95;99428.97;5033036;28;20029;-82
2021/12/17 00:12:21;;;;;;;10.20;4.63;;;;;;;20.11;26.21;99437.72;5031894;28;20041;-82
2021/12/17 00:14:49;;;;;;;10.18;4.28;;;;;;;20.42;25.98;99437.44;5026285;28;20052;-82
2021/12/17 00:17:21;;;;;;;8.52;3.97;;;;;;;20.40;26.16;99423.03;5027490;28;20045;-82
2021/12/17 00:52:49;;;;;;;9.85;4.65;;;;;;;20.61;25.78;99423.34;5051414;28;20064;-83
2021/12/17 00:55:15;;;;;;;7.45;4.28;;;;;;;20.26;26.29;99432.00;5033110;28;22944;-82
2021/12/17 00:57:43;;;;;;;5.78;3.17;;;;;;;20.86;25.74;99435.66;5033830;28;20108;-82
2021/12/17 01:00:21;;;;;;;8.75;4.20;;;;;;;20.47;25.81;99435.09;5034250;28;20057;-82
2021/12/17 01:02:49;;;;;;;9.13;4.07;;;;;;;20.63;25.84;99429.38;5036376;28;20121;-82
2021/12/17 01:05:23;;;;;;;10.48;4.57;;;;;;;21.53;24.50;99419.66;5031955;28;20036;-82
2021/12/17 01:07:53;;;;;;;8.95;3.92;;;;;;;21.73;24.37;99414.63;5029474;28;20049;-83
2021/12/17 01:10:29;;;;;;;12.00;4.90;;;;;;;21.74;24.37;99419.88;5041295;28;20492;-83
2021/12/17 01:12:57;;;;;;;9.80;3.80;;;;;;;21.83;24.33;99411.94;5031432;28;20034;-82
2021/12/17 01:15:25;;;;;;;9.90;4.25;;;;;;;22.23;23.55;99408.28;5034563;28;20068;-83
2021/12/17 01:17:56;;;;;;;9.63;3.97;;;;;;;21.97;24.11;99408.50;5055525;28;20035;-83
2021/12/17 01:20:47;;;;;;;11.65;3.95;;;;;;;21.94;24.00;99409.25;5032916;28;20030;-82
2021/12/17 01:35:19;;;;;;;7.18;3.63;;;;;;;21.85;23.98;99400.41;5033286;28;19956;-83
2021/12/17 01:37:28;;;;;;;5.90;3.22;;;;;;;22.33;23.70;99390.78;5030896;28;20053;-82
2021/12/17 01:42:25;;;;;;;8.43;4.25;;;;;;;21.49;24.27;99404.88;5031316;28;20045;-82
2021/12/17 01:44:51;;;;;;;8.95;4.28;;;;;;;22.40;23.01;99379.63;5032719;28;20044;-82
2021/12/17 01:47:17;;;;;;;6.45;3.58;;;;;;;21.72;23.92;99387.88;5027562;28;20037;-82
2021/12/17 02:00:23;;;;;;;9.77;4.20;;;;;;;21.16;24.96;99410.50;5034045;28;20485;-83
2021/12/17 02:02:56;;;;;;;9.82;4.30;;;;;;;21.05;24.96;99399.19;5034475;28;20481;-83
2021/12/17 02:05:22;;;;;;;9.88;4.30;;;;;;;20.99;25.28;99394.31;5032806;28;20108;-82
2021/12/17 02:07:51;;;;;;;13.07;4.50;;;;;;;21.26;24.71;99393.84;5032188;28;20091;-82
2021/12/17 02:21:23;;;;;;;11.55;4.80;;;;;;;21.22;25.02;99358.69;5031021;28;20412;-82
2021/12/17 02:29:37;;;;;;;11.32;4.13;;;;;;;20.59;25.87;99376.28;5028395;28;20038;-82
2021/12/17 02:32:04;;;;;;;7.45;3.85;;;;;;;19.91;26.67;99382.06;5030922;28;20076;-83
2021/12/17 02:37:42;;;;;;;8.88;4.15;;;;;;;19.55;27.67;99374.31;5045634;28;20087;-82
2021/12/17 02:42:30;;;;;;;19.63;5.63;;;;;;;19.90;26.69;99371.28;5030448;28;20042;-83
2021/12/17 02:45:46;;;;;;;12.60;4.35;;;;;;;20.68;25.80;99356.44;5028745;28;20037;-83
2021/12/17 02:48:21;;;;;;;14.48;4.07;;;;;;;20.43;26.11;99361.72;5024999;28;20034;-82
2021/12/17 02:50:51;;;;;;;13.57;5.15;;;;;;;20.36;25.65;99366.41;5028009;28;20029;-83
2021/12/17 02:53:19;;;;;;;9.30;4.05;;;;;;;20.71;25.49;99363.25;5030229;28;20037;-83
2021/12/17 02:55:51;;;;;;;13.57;4.53;;;;;;;19.79;26.77;99367.53;5027444;28;20477;-83
2021/12/17 02:58:20;;;;;;;10.38;4.20;;;;;;;19.75;26.54;99372.25;5032027;28;20030;-83
2021/12/17 03:00:46;;;;;;;12.43;3.78;;;;;;;19.49;27.29;99372.19;5029653;28;20060;-83
2021/12/17 03:03:14;;;;;;;9.73;3.58;;;;;;;18.98;27.93;99361.31;5028471;28;20137;-83
2021/12/17 03:05:42;;;;;;;11.75;3.83;;;;;;;18.58;28.65;99358.13;5032619;28;20057;-83
2021/12/17 03:08:13;;;;;;;11.60;4.35;;;;;;;20.10;25.97;99369.19;5026048;28;20022;-83
2021/12/17 03:10:39;;;;;;;;;;;;;;;20.30;25.21;99363.16;5031837;28;20032;-82
2021/12/17 03:13:06;;;;;;;9.55;3.20;;;;;;;19.88;26.33;99377.22;5027702;28;19924;-83
2021/12/17 03:15:53;;;;;;;12.20;3.50;;;;;;;20.15;26.18;99380.81;5031765;28;20033;-83
2021/12/17 03:23:40;;;;;;;8.18;3.33;;;;;;;19.54;26.83;99372.69;5017041;28;20153;-83
2021/12/17 03:26:19;;;;;;;8.82;3.85;;;;;;;19.74;26.74;99379.78;5024397;28;20112;-83
2021/12/17 03:28:49;;;;;;;11.57;3.90;;;;;;;20.06;25.88;99382.28;5032879;28;20408;-83
2021/12/17 03:31:16;;;;;;;7.27;4.30;;;;;;;19.20;27.68;99385.59;5026355;28;20017;-83
2021/12/17 03:33:44;;;;;;;11.57;4.03;;;;;;;19.94;26.19;99377.72;5026042;28;20026;-82
2021/12/17 03:36:14;;;;;;;7.55;4.20;;;;;;;20.40;25.29;99379.22;5024392;28;20389;-83
2021/12/17 03:38:42;;;;;;;9.80;3.28;;;;;;;21.39;24.09;99362.84;5021448;28;20049;-83
2021/12/17 03:41:16;;;;;;;10.85;3.70;;;;;;;20.98;24.58;99373.16;5027221;28;20120;-82
2021/12/17 03:43:43;;;;;;;6.45;3.70;;;;;;;21.21;24.33;99374.63;5026844;28;20040;-82
2021/12/17 03:46:09;;;;;;;8.90;3.28;;;;;;;20.67;25.10;99383.59;5030189;28;20485;-83
2021/12/17 03:48:38;;;;;;;8.35;3.08;;;;;;;20.66;24.99;99381.16;5031969;28;20025;-82
2021/12/17 03:51:10;;;;;;;9.25;3.53;;;;;;;20.18;25.38;99380.09;5031796;28;20034;-82
2021/12/17 03:53:36;;;;;;;8.15;3.03;;;;;;;19.08;27.19;99373.81;5027157;28;20488;-83
2021/12/17 03:56:02;;;;;;;9.32;3.13;;;;;;;20.71;24.73;99372.44;5025505;28;20105;-83
2021/12/17 03:58:28;;;;;;;11.05;3.53;;;;;;;21.00;24.22;99368.81;5028411;28;20128;-83
2021/12/17 04:00:54;;;;;;;11.15;3.40;;;;;;;21.56;23.49;99371.41;5029128;28;20099;-82
2021/12/17 04:03:21;;;;;;;5.93;3.40;;;;;;;19.99;25.24;99381.00;5031252;28;20037;-83
2021/12/17 04:05:47;;;;;;;8.57;2.95;;;;;;;21.11;23.81;99375.34;5032419;28;20072;-82
2021/12/17 04:08:13;;;;;;;9.73;3.40;;;;;;;21.85;22.82;99364.06;5033529;28;20524;-83
2021/12/17 04:10:47;;;;;;;8.20;3.58;;;;;;;20.95;23.55;99371.94;5028685;28;20026;-82
2021/12/17 04:13:25;;;;;;;9.55;3.95;;;;;;;19.99;25.28;99380.19;5030891;28;20045;-82
2021/12/17 04:15:56;;;;;;;8.73;2.95;;;;;;;21.18;23.80;99367.03;5029640;28;20440;-82
2021/12/17 04:18:24;;;;;;;6.43;2.95;;;;;;;21.50;23.13;99369.31;5029637;28;20042;-83
2021/12/17 04:20:50;;;;;;;6.75;2.42;;;;;;;21.80;22.96;99373.56;5032433;28;20030;-82
2021/12/17 04:23:16;;;;;;;8.15;3.15;;;;;;;21.12;23.81;99376.16;5030425;28;20159;-82
2021/12/17 04:25:42;;;;;;;8.20;3.55;;;;;;;20.16;25.11;99381.63;5031324;28;20034;-83
2021/12/17 04:28:08;;;;;;;9.00;3.78;;;;;;;20.91;24.28;99371.06;5033835;28;20489;-82
2021/12/17 04:30:37;;;;;;;15.07;4.05;;;;;;;22.12;22.44;99370.25;5022843;28;20025;-82
2021/12/17 04:33:03;;;;;;;10.48;3.22;;;;;;;22.71;21.57;99366.19;5032792;28;20108;-82
2021/12/17 04:35:30;;;;;;;9.90;2.78;;;;;;;22.47;21.58;99362.88;5026351;28;20096;-82
2021/12/17 04:37:56;;;;;;;5.35;2.90;;;;;;;23.03;21.14;99365.09;5028844;28;20040;-82
2021/12/17 04:40:24;;;;;;;5.43;2.75;;;;;;;20.30;23.83;99376.28;5033353;28;20034;-83
2021/12/17 04:45:24;;;;;;;5.40;2.40;;;;;;;22.29;21.95;99358.34;5029993;28;20065;-83
2021/12/17 04:58:48;;;;;;;9.50;2.92;;;;;;;21.75;22.18;99378.75;5027008;28;20394;-83
2021/12/17 05:01:16;;;;;;;5.88;2.05;;;;;;;22.50;21.19;99369.66;5030588;28;20074;-82
2021/12/17 05:03:42;;;;;;;7.22;2.17;;;;;;;21.65;22.13;99365.47;5028380;28;20033;-83
2021/12/17 05:06:08;;;;;;;7.70;2.67;;;;;;;20.85;23.05;99355.06;5032170;28;20122;-82
2021/12/17 05:08:35;;;;;;;5.03;2.17;;;;;;;22.37;21.45;99357.19;5030378;28;20037;-82
2021/12/17 05:21:37;;;;;;;5.32;2.47;;;;;;;19.23;25.46;99361.75;5025788;28;20048;-82
2021/12/17 05:24:04;;;;;;;10.32;2.70;;;;;;;18.91;25.83;99361.19;5028270;28;20053;-82
2021/12/17 05:26:30;;;;;;;4.18;2.30;;;;;;;19.82;24.37;99362.00;5028537;28;20035;-82
2021/12/17 05:28:56;;;;;;;6.55;1.92;;;;;;;19.66;24.78;99366.94;5034009;28;20041;-82
2021/12/17 05:31:22;;;;;;;3.03;2.03;;;;;;;21.84;21.78;99348.47;5028052;28;20091;-82
2021/12/17 05:33:50;;;;;;;2.63;2.20;;;;;;;22.78;20.94;99355.03;5022624;28;20390;-82
2021/12/17 05:36:16;;;;;;;6.00;2.60;;;;;;;23.75;19.60;99358.41;5020854;28;20034;-82
2021/12/17 05:38:42;;;;;;;5.82;2.33;;;;;;;23.95;19.16;99346.38;5020677;28;20038;-82
2021/12/17 05:41:08;;;;;;;6.53;2.42;;;;;;;24.00;19.57;99334.75;5016944;28;20030;-83
2021/12/17 05:43:37;;;;;;;10.02;2.25;;;;;;;24.59;18.97;99346.22;5025004;28;20039;-82
2021/12/17 05:48:33;;;;;;;6.10;2.50;;;;;;;23.09;20.52;99355.09;5028122;28;20037;-82
2021/12/17 05:51:03;;;;;;;6.47;2.40;;;;;;;23.01;20.46;99344.28;5026197;28;20398;-82
2021/12/17 05:53:29;;;;;;;7.30;2.63;;;;;;;23.13;20.33;99344.69;5026497;28;20042;-83
2021/12/17 05:55:56;;;;;;;5.20;2.53;;;;;;;22.93;20.79;99351.06;5030627;28;20041;-82
2021/12/17 05:58:23;;;;;;;6.95;3.25;;;;;;;20.86;22.88;99353.88;5023589;28;20033;-82
2021/12/17 06:00:49;;;;;;;7.38;2.67;;;;;;;20.79;23.63;99346.25;5024997;28;20042;-82
2021/12/17 06:03:18;;;;;;;7.03;3.00;;;;;;;20.09;24.09;99360.03;5024535;28;20064;-81
2021/12/17 06:05:44;;;;;;;7.22;2.75;;;;;;;20.82;23.17;99351.03;5241292;23;20065;-81
2021/12/17 06:08:10;;;;;;;7.68;2.90;;;;;;;21.18;22.75;99352.25;5002753;28;20432;-80
2021/12/17 06:10:37;;;;;;;7.30;2.83;;;;;;;22.49;21.15;99354.88;5009244;28;20041;-81
2021/12/17 06:13:04;;;;;;;6.90;2.95;;;;;;;21.35;22.42;99371.19;5007006;28;20500;-81
2021/12/17 06:15:30;;;;;;;8.05;3.20;;;;;;;20.64;23.63;99381.53;5008236;28;20052;-81
2021/12/17 06:17:56;;;;;;;8.95;3.38;;;;;;;20.55;23.72;99361.50;5003171;28;20038;-81
2021/12/17 06:20:24;;;;;;;8.77;3.55;;;;;;;20.60;23.85;99365.94;5005241;28;20704;-81
2021/12/17 06:22:52;;;;;;;11.25;3.35;;;;;;;21.05;23.11;99368.47;5004907;28;20234;-80
2021/12/17 06:25:18;;;;;;;8.20;2.92;;;;;;;21.02;23.11;99358.06;5000183;28;20042;-78
2021/12/17 06:27:45;;;;;;;7.20;2.90;;;;;;;21.52;22.62;99378.91;5005104;28;20038;-81
2021/12/17 06:30:14;;;;;;;12.30;3.88;;;;;;;21.33;22.93;99384.75;5012884;28;20354;-80
2021/12/17 06:32:41;;;;;;;6.22;2.42;;;;;;;21.46;22.93;99385.25;4994631;28;20030;-81
2021/12/17 06:35:09;;;;;;;5.88;2.90;;;;;;;19.49;24.92;99400.03;5002379;28;20450;-80
2021/12/17 06:37:36;;;;;;;10.60;4.18;;;;;;;19.69;25.21;99394.06;5014064;28;20029;-80
2021/12/17 06:40:05;;;;;;;11.73;3.72;;;;;;;19.79;25.24;99400.97;5015178;28;20113;-80
2021/12/17 06:42:31;;;;;;;11.32;4.30;;;;;;;20.25;24.35;99398.94;5014497;28;20072;-81
2021/12/17 06:45:01;;;;;;;8.80;4.53;;;;;;;19.19;25.84;99399.88;5014461;28;20037;-81
2021/12/17 06:47:35;;;;;;;10.88;3.97;;;;;;;19.18;25.38;99393.50;5008523;28;20096;-80
2021/12/17 06:58:41;;;;;;;6.70;3.78;;;;;;;19.46;25.61;99400.81;5013677;28;20519;-80
2021/12/17 07:01:18;;;;;;;11.70;4.57;;;;;;;19.26;25.54;99391.66;5011589;28;20040;-80
2021/12/17 07:17:07;;;;;;;9.82;3.85;;;;;;;20.41;23.56;99391.19;5014754;28;20045;-80
2021/12/17 07:17:24;;;;;;;12.05;3.03;;;;;;;17.20;27.56;99379.81;5014318;28;20064;-80
2021/12/17 07:22:28;;;;;;;9.00;3.70;;;;;;;16.84;27.65;99395.88;5014285;28;20046;-81
2021/12/17 07:32:52;;;;;;;7.40;4.43;;;;;;;19.49;24.65;99398.06;5012207;28;20037;-80
2021/12/17 07:40:34;;;;;;;9.90;3.90;;;;;;;18.56;25.51;99388.28;4999038;28;20598;-81
2021/12/17 07:43:07;;;;;;;10.95;4.22;;;;;;;18.61;25.49;99386.03;5012254;28;20508;-81
2021/12/17 07:45:33;;;;;;;9.70;3.85;;;;;;;19.22;24.98;99374.91;5010158;28;20042;-80
2021/12/17 07:47:59;;;;;;;13.77;5.20;;;;;;;19.76;24.22;99377.47;5011275;28;20037;-81
2021/12/17 07:50:26;;;;;;;9.52;5.38;;;;;;;19.09;25.06;99376.22;5008023;28;20773;-81
2021/12/17 07:52:52;;;;;;;13.95;4.82;;;;;;;18.40;25.93;99371.63;5010718;28;20110;-81
2021/12/17 07:55:18;;;;;;;10.68;4.25;;;;;;;19.75;23.81;99373.03;5011275;28;20038;-81
2021/12/17 07:57:44;;;;;;;8.00;3.50;;;;;;;18.91;25.29;99371.50;5009175;28;20068;-81
2021/12/17 08:00:10;;;;;;;20.23;11.35;;;;;;;18.87;25.25;99357.53;5005058;28;20034;-81
2021/12/17 08:02:36;;;;;;;29.17;14.18;;;;;;;19.68;23.75;99364.56;5005056;28;20042;-81
2021/12/17 08:05:03;;;;;;;17.17;7.30;;;;;;;19.52;24.33;99358.34;5002869;28;20824;-82
2021/12/17 08:07:29;;;;;;;9.85;5.63;;;;;;;17.88;26.64;99368.47;5011352;28;20053;-81
2021/12/17 08:09:57;;;;;;;11.63;5.72;;;;;;;19.55;24.07;99367.94;5011943;28;20026;-81
2021/12/17 08:12:23;;;;;;;10.93;4.38;;;;;;;19.83;23.89;99360.84;5008965;28;20034;-81
2021/12/17 08:14:49;;;;;;;10.93;4.40;;;;;;;20.79;22.65;99351.00;5013360;28;20109;-81
2021/12/17 08:17:38;;;;;;;10.25;4.05;;;;;;;20.13;23.52;99357.28;5010804;28;20034;-81
2021/12/17 08:25:48;;;;;;;10.55;3.75;;;;;;;19.87;23.95;99375.63;5012999;28;20119;-81
2021/12/17 08:28:16;;;;;;;12.75;4.63;;;;;;;19.75;23.73;99383.38;5008920;28;20046;-81
2021/12/17 08:30:42;;;;;;;10.60;5.82;;;;;;;20.60;22.92;99374.31;5010090;28;20026;-81
2021/12/17 08:33:09;;;;;;;9.80;3.13;;;;;;;20.43;23.28;99383.25;5001635;28;20034;-81
2021/12/17 08:35:36;;;;;;;8.15;3.35;;;;;;;19.87;24.18;99383.19;5011833;28;20109;-81
2021/12/17 08:38:06;;;;;;;10.25;2.92;;;;;;;21.35;22.10;99377.56;5008714;28;20156;-81
2021/12/17 08:40:33;;;;;;;8.88;3.63;;;;;;;20.49;23.51;99379.72;5010206;28;20038;-81
2021/12/17 08:43:01;;;;;;;12.73;3.92;;;;;;;21.60;21.78;99374.19;5003667;28;20081;-82
2021/12/17 08:45:27;;;;;;;8.18;2.80;;;;;;;20.87;23.14;99375.00;5011077;28;20503;-81
2021/12/17 08:47:53;;;;;;;7.47;2.72;;;;;;;18.63;25.50;99383.69;5007337;28;20044;-82
2021/12/17 08:50:20;;;;;;;7.13;3.28;;;;;;;19.39;24.52;99395.91;5008503;28;20034;-81
2021/12/17 08:52:47;;;;;;;11.45;4.88;;;;;;;19.43;24.47;99390.41;5015648;28;20033;-82
2021/12/17 08:55:14;;;;;;;6.95;3.85;;;;;;;19.25;25.22;99395.63;5015287;28;20026;-82
2021/12/17 08:57:41;;;;;;;8.90;3.45;;;;;;;18.71;26.06;99386.59;5003606;28;20042;-82
2021/12/17 09:00:11;;;;;;;12.90;4.00;;;;;;;18.00;26.82;99398.91;5012752;28;20444;-83
2021/12/17 09:02:38;;;;;;;10.77;3.70;;;;;;;17.41;27.67;99393.44;5012807;28;20481;-81
2021/12/17 09:05:05;;;;;;;13.88;3.80;;;;;;;17.57;27.96;99399.06;5012780;28;20462;-82
2021/12/17 09:07:32;;;;;;;8.43;3.10;;;;;;;18.43;26.73;99404.28;5007091;28;20042;-82
2021/12/17 09:09:58;;;;;;;8.10;2.70;;;;;;;17.73;27.47;99422.06;5015514;28;20164;-82
2021/12/17 09:12:24;;;;;;;11.75;2.92;;;;;;;17.93;26.94;99415.41;5016401;28;20034;-81
2021/12/17 09:14:51;;;;;;;8.80;3.20;;;;;;;18.56;26.93;99425.25;5014344;28;20033;-82
2021/12/17 09:17:19;;;;;;;12.15;3.08;;;;;;;17.54;27.92;99428.34;5014772;28;20041;-82
2021/12/17 09:19:45;;;;;;;10.93;3.55;;;;;;;18.47;26.30;99412.72;5008576;28;20030;-82
2021/12/17 09:22:11;;;;;;;9.07;2.92;;;;;;;17.62;27.41;99427.34;5014365;28;20030;-81
2021/12/17 09:24:37;;;;;;;12.27;4.05;;;;;;;19.51;25.25;99412.44;5016215;28;20030;-81
2021/12/17 09:27:03;;;;;;;10.18;3.17;;;;;;;18.02;27.23;99412.47;5015902;28;20041;-82
2021/12/17 09:29:29;;;;;;;10.20;3.58;;;;;;;18.78;26.50;99425.69;5012163;28;20026;-81
2021/12/17 09:31:55;;;;;;;11.82;4.15;;;;;;;19.17;25.42;99421.72;5016439;28;20030;-81
2021/12/17 09:34:22;;;;;;;9.77;4.97;;;;;;;20.06;24.45;99407.38;5015478;28;20030;-82
2021/12/17 09:36:48;;;;;;;12.73;3.90;;;;;;;19.42;24.82;99402.72;5013476;28;20497;-82
2021/12/17 09:39:15;;;;;;;11.25;4.18;;;;;;;19.33;25.24;99405.72;5014371;28;20113;-82
2021/12/17 09:41:50;;;;;;;14.38;4.13;;;;;;;19.67;25.41;99404.78;5023549;28;20488;-82
2021/12/17 09:44:18;;;;;;;10.88;3.58;;;;;;;19.54;25.29;99405.31;5011449;28;20049;-82
2021/12/17 09:46:46;;;;;;;10.68;3.83;;;;;;;19.83;25.07;99405.44;5015600;28;20511;-81
2021/12/17 09:49:15;;;;;;;14.32;4.63;;;;;;;19.76;24.87;99402.53;5015072;28;20030;-82
2021/12/17 09:51:41;;;;;;;14.23;4.10;;;;;;;20.17;23.89;99394.38;5013682;28;20472;-82
2021/12/17 09:54:07;;;;;;;12.85;4.55;;;;;;;20.68;23.76;99387.16;5015626;28;20041;-82
2021/12/17 09:56:33;;;;;;;9.70;3.33;;;;;;;19.02;26.38;99392.00;5004458;28;20045;-82
2021/12/17 09:59:01;;;;;;;8.73;3.88;;;;;;;20.07;24.45;99384.69;4997544;28;20065;-82
2021/12/17 10:01:27;;;;;;;10.18;3.50;;;;;;;20.13;24.20;99380.41;5006619;28;20037;-82
2021/12/17 10:04:19;;;;;;;8.05;2.88;;;;;;;19.75;24.56;99380.59;5014553;28;20038;-82
2021/12/17 10:06:50;;;;;;;10.85;2.78;;;;;;;21.84;22.67;99368.06;5013587;28;20473;-82
2021/12/17 10:09:16;;;;;;;11.35;3.25;;;;;;;21.72;22.04;99373.91;5015088;28;20120;-82
2021/12/17 10:12:03;;;;;;;7.25;2.70;;;;;;;21.10;23.03;99364.53;5004592;28;20049;-82
2021/12/17 10:14:30;;;;;;;9.10;2.75;;;;;;;20.25;24.63;99379.41;4999283;28;20096;-82
2021/12/17 10:17:11;;;;;;;6.95;2.42;;;;;;;21.01;23.25;99367.63;5014181;28;20600;-82
2021/12/17 10:19:43;;;;;;;9.23;3.13;;;;;;;20.99;23.00;99366.38;5007274;28;20033;-82
2021/12/17 10:22:11;;;;;;;12.65;5.00;;;;;;;20.69;23.25;99360.88;5008385;28;20034;-82
2021/12/17 10:24:38;;;;;;;10.38;4.28;;;;;;;20.99;23.16;99360.81;5012467;28;20030;-82
2021/12/17 10:27:21;;;;;;;12.00;3.95;;;;;;;20.67;22.89;99347.31;5014234;28;20033;-82
2021/12/17 10:29:48;;;;;;;8.30;3.13;;;;;;;20.73;23.81;99358.09;5011891;28;20038;-82
2021/12/17 10:32:20;;;;;;;6.45;3.05;;;;;;;21.66;22.47;99341.91;5010329;28;20171;-82
2021/12/17 10:35:26;;;;;;;10.63;3.03;;;;;;;21.52;22.03;99342.59;5011598;28;20044;-82
2021/12/17 10:37:59;;;;;;;13.52;4.85;;;;;;;20.87;23.46;99339.53;5009909;28;20132;-82
2021/12/17 10:40:36;;;;;;;13.40;3.70;;;;;;;20.62;23.37;99349.63;5022569;28;20113;-82
2021/12/17 10:43:15;;;;;;;10.10;3.33;;;;;;;21.03;23.15;99344.88;5013175;28;20088;-82
2021/12/17 10:45:58;;;;;;;10.05;4.45;;;;;;;22.16;22.18;99343.09;5003907;28;20547;-82
2021/12/17 10:51:12;;;;;;;7.75;3.25;;;;;;;20.17;23.98;99361.72;5004741;28;20037;-82
2021/12/17 10:53:38;;;;;;;;;;;;;;;20.25;23.51;99351.53;5012231;28;20030;-82
2021/12/17 10:56:04;;;;;;;11.45;3.03;;;;;;;20.76;23.07;99352.56;4994421;28;19913;-82
2021/12/17 10:58:31;;;;;;;16.77;6.70;;;;;;;21.32;22.18;99346.81;5013015;28;20040;-82
2021/12/17 11:01:07;;;;;;;11.18;3.28;;;;;;;22.85;21.01;99338.25;5010875;28;20503;-82
2021/12/17 11:03:43;;;;;;;10.27;3.67;;;;;;;22.17;21.04;99351.06;5012099;28;20053;-82
2021/12/17 11:06:09;;;;;;;7.32;2.95;;;;;;;22.93;20.38;99351.06;5013899;28;20049;-82
2021/12/17 11:08:37;;;;;;;13.85;7.18;;;;;;;22.71;20.91;99349.41;5013242;28;20041;-82
2021/12/17 11:11:12;;;;;;;24.58;14.40;;;;;;;22.56;21.00;99351.31;5006874;28;20037;-82
2021/12/17 11:13:56;;;;;;;12.43;5.10;;;;;;;22.09;20.94;99341.06;5018017;28;20030;-82
2021/12/17 11:16:22;;;;;;;9.75;4.00;;;;;;;21.65;21.85;99343.91;5014127;28;20029;-82
2021/12/17 11:18:51;;;;;;;13.20;4.47;;;;;;;20.98;22.84;99334.88;5032648;28;20034;-82
2021/12/17 11:21:17;;;;;;;13.68;4.70;;;;;;;21.35;22.02;99346.06;5009687;28;20546;-82
2021/12/17 11:23:44;;;;;;;11.57;3.65;;;;;;;20.95;22.75;99348.81;5009045;28;20112;-82
2021/12/17 11:26:11;;;;;;;12.75;4.03;;;;;;;20.77;23.04;99345.00;5008248;28;20026;-82
2021/12/17 11:28:37;;;;;;;15.70;8.75;;;;;;;20.27;23.83;99354.72;5006556;28;20117;-82
2021/12/17 11:31:04;;;;;;;9.15;4.85;;;;;;;21.42;22.50;99336.94;5021351;28;20367;-81
2021/12/17 11:33:31;;;;;;;9.30;4.43;;;;;;;22.38;21.35;99336.44;5000912;28;20036;-82
2021/12/17 11:35:57;;;;;;;9.18;3.67;;;;;;;22.34;21.22;99330.81;5007948;28;20072;-82
2021/12/17 11:38:45;;;;;;;13.60;4.57;;;;;;;22.51;20.97;99340.47;5012760;28;20038;-82
2021/12/17 11:41:22;;;;;;;11.95;4.18;;;;;;;22.14;20.97;99325.91;4997100;28;20064;-82
2021/12/17 11:43:54;;;;;;;9.65;3.67;;;;;;;21.59;22.01;99327.88;4994010;28;20022;-81
2021/12/17 11:46:28;;;;;;;9.05;3.25;;;;;;;21.15;22.50;99327.88;4998252;28;20042;-82
2021/12/17 11:49:02;;;;;;;12.25;4.18;;;;;;;22.15;21.18;99319.91;5009372;28;20039;-81
2021/12/17 11:51:31;;;;;;;24.25;11.63;;;;;;;21.08;22.54;99325.84;5009010;28;20042;-82
2021/12/17 11:54:05;;;;;;;21.95;11.85;;;;;;;22.16;21.49;99329.91;5004527;28;20088;-81
2021/12/17 11:56:36;;;;;;;14.60;5.60;;;;;;;21.98;21.55;99326.22;5012139;28;20099;-82
2021/12/17 11:59:03;;;;;;;23.90;10.05;;;;;;;22.16;21.31;99313.13;5012760;28;20049;-81
2021/12/17 12:01:47;;;;;;;17.17;6.47;;;;;;;23.27;20.21;99304.69;5013849;28;20105;-81
2021/12/17 12:04:42;;;;;;;12.43;6.07;;;;;;;22.69;20.35;99314.19;5012363;28;20501;-82
2021/12/17 12:07:13;;;;;;;10.02;4.65;;;;;;;22.09;21.75;99315.88;5011949;28;20172;-82
2021/12/17 12:09:47;;;;;;;;;;;;;;;22.15;21.34;99317.09;5012418;28;20117;-83
2021/12/17 12:12:14;;;;;;;14.40;5.47;;;;;;;22.66;20.66;99317.75;5007543;28;19965;-82
2021/12/17 12:14:40;;;;;;;37.22;18.35;;;;;;;22.37;20.81;99313.22;5013193;28;20021;-82
2021/12/17 12:17:06;;;;;;;21.25;12.10;;;;;;;21.49;22.02;99314.63;5013271;28;20037;-80
2021/12/17 12:19:49;;;;;;;21.92;10.75;;;;;;;22.16;21.41;99320.72;5012851;28;20077;-82
2021/12/17 12:22:30;;;;;;;11.57;5.88;;;;;;;22.77;20.68;99309.41;5010980;28;20041;-82
2021/12/17 12:25:15;;;;;;;;;;;;;;;22.07;21.03;99318.28;5012506;28;20059;-82
2021/12/17 12:27:47;;;;;;;33.20;19.67;;;;;;;21.40;21.84;99319.75;5007663;28;19924;-82
2021/12/17 12:30:14;;;;;;;18.55;7.78;;;;;;;21.58;21.67;99312.31;5017200;28;20145;-82
2021/12/17 12:33:04;;;;;;;24.75;9.80;;;;;;;20.08;22.97;99327.75;5017319;28;20042;-82
2021/12/17 12:35:32;;;;;;;16.73;8.00;;;;;;;19.52;24.17;99326.88;5016271;28;20104;-82
2021/12/17 12:38:16;;;;;;;12.52;5.70;;;;;;;17.59;25.77;99328.09;5015641;28;20044;-82
2021/12/17 12:40:50;;;;;;;11.25;4.70;;;;;;;16.95;27.67;99347.03;5015346;28;20547;-83
2021/12/17 12:43:29;;;;;;;8.77;4.35;;;;;;;17.47;26.51;99346.78;5016342;28;20521;-82
2021/12/17 12:45:55;;;;;;;8.93;4.15;;;;;;;17.10;27.27;99347.06;4996006;28;20402;-83
2021/12/17 12:48:38;;;;;;;9.13;4.18;;;;;;;16.80;27.46;99348.63;4997390;28;20031;-82
2021/12/17 12:51:20;;;;;;;11.98;4.57;;;;;;;17.64;26.29;99352.03;5002448;28;20443;-82
2021/12/17 12:54:07;;;;;;;14.07;5.13;;;;;;;18.60;25.28;99351.03;5003560;28;20038;-82
2021/12/17 12:56:37;;;;;;;10.38;3.97;;;;;;;18.73;25.04;99340.56;5016115;28;20543;-82
2021/12/17 12:59:06;;;;;;;9.90;4.18;;;;;;;18.48;25.09;99348.38;5016445;28;20060;-82
2021/12/17 13:01:32;;;;;;;9.13;3.38;;;;;;;19.51;24.02;99348.38;5015869;28;20069;-83
2021/12/17 13:03:58;;;;;;;9.15;4.07;;;;;;;19.80;23.50;99338.47;5014327;28;20073;-83
2021/12/17 13:06:25;;;;;;;7.85;4.07;;;;;;;20.21;22.83;99333.91;5011273;28;20042;-82
2021/12/17 13:08:59;;;;;;;7.63;4.45;;;;;;;20.15;22.88;99336.22;5016564;28;20030;-82
2021/12/17 13:11:26;;;;;;;12.75;4.93;;;;;;;19.41;23.96;99332.28;5012439;28;20113;-83
2021/12/17 13:13:54;;;;;;;13.52;4.72;;;;;;;19.93;22.75;99335.09;5014720;28;20406;-83
2021/12/17 13:21:59;;;;;;;11.73;4.47;;;;;;;20.04;22.61;99337.25;5015374;28;20470;-83
2021/12/17 13:24:27;;;;;;;9.95;4.22;;;;;;;19.93;22.74;99325.94;5016528;28;20050;-82
2021/12/17 13:27:00;;;;;;;13.45;5.00;;;;;;;20.26;22.70;99319.66;5015645;28;20042;-82
2021/12/17 13:29:33;;;;;;;10.05;4.72;;;;;;;20.49;22.15;99320.38;5031316;28;20099;-83
2021/12/17 13:32:01;;;;;;;11.65;4.30;;;;;;;19.91;23.33;99319.94;5015219;28;20077;-82
2021/12/17 13:34:29;;;;;;;9.02;3.67;;;;;;;20.63;22.22;99324.09;5009519;28;20458;-84
2021/12/17 13:37:00;;;;;;;8.55;4.22;;;;;;;20.55;22.10;99313.25;5007883;28;20038;-82
2021/12/17 13:39:31;;;;;;;10.13;4.30;;;;;;;19.91;23.22;99323.53;5011131;28;20249;-81
2021/12/17 13:41:57;;;;;;;17.60;5.38;;;;;;;20.12;22.75;99322.25;5011369;28;20042;-81
2021/12/17 13:44:28;;;;;;;8.98;4.07;;;;;;;19.58;23.93;99330.97;5006860;28;20041;-82
2021/12/17 13:47:07;;;;;;;13.45;4.70;;;;;;;21.26;21.54;99318.41;5002885;28;20064;-82
2021/12/17 13:49:33;;;;;;;12.35;4.50;;;;;;;20.66;22.31;99322.53;5007102;28;20022;-83
2021/12/17 13:52:00;;;;;;;10.48;3.80;;;;;;;21.14;22.12;99324.28;5010940;28;20031;-82
2021/12/17 13:54:26;;;;;;;10.70;4.50;;;;;;;21.27;21.29;99322.03;5007442;28;20406;-82
2021/12/17 13:57:00;;;;;;;11.52;4.97;;;;;;;21.04;21.42;99315.78;5011821;28;20062;-84
2021/12/17 13:59:35;;;;;;;11.68;5.13;;;;;;;20.13;22.71;99319.06;5011034;28;20040;-83
2021/12/17 14:02:22;;;;;;;12.15;5.43;;;;;;;20.43;22.58;99325.47;5007476;28;20147;-82
2021/12/17 14:05:04;;;;;;;10.13;4.75;;;;;;;20.22;23.22;99327.16;5004606;28;20555;-81
2021/12/17 14:07:32;;;;;;;11.48;4.70;;;;;;;20.75;22.29;99325.06;5008311;28;20038;-81
2021/12/17 14:10:18;;;;;;;10.75;4.50;;;;;;;20.43;22.69;99342.22;5010609;28;20033;-81
2021/12/17 14:12:44;;;;;;;10.27;5.50;;;;;;;20.20;23.11;99332.28;5006817;28;20125;-80
2021/12/17 14:15:15;;;;;;;11.80;5.65;;;;;;;20.19;22.86;99325.91;5005435;28;20030;-81
2021/12/17 14:17:44;;;;;;;;;;;;;;;22.49;19.95;99321.28;5020542;28;20105;-81
2021/12/17 14:20:19;;;;;;;10.93;4.90;;;;;;;22.84;19.71;99317.03;5005818;28;19917;-80
2021/12/17 14:22:48;;;;;;;7.93;4.60;;;;;;;23.56;18.66;99311.94;5007569;28;20560;-80
2021/12/17 14:25:39;;;;;;;10.55;5.15;;;;;;;23.56;18.82;99325.16;5010413;28;20040;-80
2021/12/17 14:28:13;;;;;;;12.65;6.28;;;;;;;22.83;19.67;99335.81;5006016;28;20508;-80